createdAt,value
2023-01-11T00:00:55.738Z,104.83
2023-01-11T00:03:25.022Z,101.47
2023-01-11T00:05:56.972Z,75.40
2023-01-11T00:08:25.352Z,103.53
2023-01-11T00:10:53.938Z,115.40
2023-01-11T00:13:21.931Z,89.37
2023-01-11T00:15:49.967Z,85.37
2023-01-11T00:18:17.959Z,115.03
2023-01-11T00:20:47.264Z,102.57
2023-01-11T00:23:15.140Z,77.27
2023-01-11T00:25:43.051Z,93.33
2023-01-11T00:28:11.176Z,78.37
2023-01-11T00:30:39.132Z,58.63
2023-01-11T00:33:07.019Z,75.67
2023-01-11T00:35:34.945Z,78.30
2023-01-11T00:38:04.207Z,71.00
2023-01-11T00:40:32.125Z,70.07
2023-01-11T00:43:17.443Z,63.83
2023-01-11T00:46:03.118Z,65.13
2023-01-11T00:48:31.089Z,58.03
2023-01-11T00:50:59.394Z,77.00
2023-01-11T00:53:28.629Z,79.20
2023-01-11T00:55:56.563Z,67.10
2023-01-11T00:58:24.446Z,64.33
2023-01-11T01:00:52.401Z,65.13
2023-01-11T01:03:20.393Z,79.27
2023-01-11T01:05:48.368Z,70.73
2023-01-11T01:08:16.259Z,86.73
2023-01-11T01:10:45.551Z,71.43
2023-01-11T01:13:31.146Z,64.90
2023-01-11T01:15:59.530Z,76.53
2023-01-11T01:18:27.494Z,75.53
2023-01-11T01:20:55.421Z,85.07
2023-01-11T01:23:23.312Z,67.17
2023-01-11T01:25:52.547Z,72.07
2023-01-11T01:28:22.167Z,73.47
2023-01-11T01:30:52.274Z,68.63
2023-01-11T01:33:20.373Z,80.53
2023-01-11T01:35:48.484Z,90.37
2023-01-11T01:38:16.593Z,64.17
2023-01-11T01:40:45.970Z,82.93
2023-01-11T01:43:17.265Z,70.10
2023-01-11T01:45:45.396Z,92.63
2023-01-11T01:48:16.386Z,85.30
2023-01-11T01:50:49.131Z,79.40
2023-01-11T01:53:19.550Z,59.87
2023-01-11T01:55:52.942Z,83.37
2023-01-11T01:58:26.748Z,100.00
2023-01-11T02:00:55.028Z,74.67
2023-01-11T02:03:26.619Z,88.73
2023-01-11T02:05:55.265Z,110.60
2023-01-11T02:08:28.429Z,109.87
2023-01-11T02:10:57.077Z,104.90
2023-01-11T02:13:26.798Z,111.40
2023-01-11T02:16:08.610Z,115.23
2023-01-11T02:18:37.569Z,55.87
2023-01-11T02:21:20.213Z,73.23
2023-01-11T02:24:17.027Z,108.00
2023-01-11T02:27:15.285Z,105.67
2023-01-11T02:29:56.658Z,58.13
2023-01-11T02:32:30.149Z,68.07
2023-01-11T02:35:08.604Z,73.27
2023-01-11T02:37:44.038Z,108.10
2023-01-11T02:40:22.567Z,98.07
2023-01-11T02:43:11.348Z,90.00
2023-01-11T02:45:51.269Z,78.67
2023-01-11T02:48:26.983Z,87.53
2023-01-11T02:51:03.433Z,94.10
2023-01-11T02:53:37.599Z,109.07
2023-01-11T02:56:10.170Z,81.90
2023-01-11T02:58:41.615Z,80.80
2023-01-11T03:01:13.019Z,81.63
2023-01-11T03:03:41.004Z,85.47
2023-01-11T03:06:15.716Z,76.93
2023-01-11T03:09:20.634Z,76.20
2023-01-11T03:12:20.695Z,88.57
2023-01-11T03:14:59.951Z,88.03
2023-01-11T03:17:43.402Z,97.63
2023-01-11T03:20:21.790Z,83.00
2023-01-11T03:23:03.436Z,90.30
2023-01-11T03:25:37.150Z,92.23
2023-01-11T03:28:14.351Z,86.27
2023-01-11T03:30:50.553Z,98.90
2023-01-11T03:33:28.295Z,103.23
2023-01-11T03:36:01.813Z,97.57
2023-01-11T03:38:36.669Z,81.70
2023-01-11T03:41:10.755Z,91.17
2023-01-11T03:43:42.165Z,91.67
2023-01-11T03:46:14.734Z,107.10
2023-01-11T03:48:54.108Z,116.53
2023-01-11T03:51:27.405Z,108.60
2023-01-11T03:54:00.115Z,93.27
2023-01-11T03:56:36.647Z,100.10
2023-01-11T03:59:04.944Z,92.90
2023-01-11T04:01:33.266Z,100.10
2023-01-11T04:04:02.693Z,85.80
2023-01-11T04:06:39.062Z,108.07
2023-01-11T04:09:07.174Z,89.23
2023-01-11T04:11:35.112Z,110.40
2023-01-11T04:14:03.023Z,118.27
2023-01-11T04:16:31.044Z,81.90
2023-01-11T04:18:58.978Z,93.33
2023-01-11T04:21:28.379Z,94.17
2023-01-11T04:23:56.426Z,105.40
2023-01-11T04:26:24.367Z,106.00
2023-01-11T04:28:54.175Z,107.60
2023-01-11T04:31:22.407Z,92.87
2023-01-11T04:33:50.417Z,94.27
2023-01-11T04:36:18.537Z,80.33
2023-01-11T04:38:47.858Z,97.97
2023-01-11T04:41:33.552Z,82.77
2023-01-11T04:44:01.465Z,90.83
2023-01-11T04:46:29.377Z,92.60
2023-01-11T04:48:57.347Z,99.03
2023-01-11T04:51:25.460Z,110.70
2023-01-11T04:53:54.834Z,94.90
2023-01-11T04:56:22.795Z,86.83
2023-01-11T04:58:50.811Z,77.77
2023-01-11T05:01:20.092Z,78.27
2023-01-11T05:03:48.404Z,77.87
2023-01-11T05:06:16.772Z,103.63
2023-01-11T05:08:46.623Z,104.83
2023-01-11T05:11:17.013Z,97.33
2023-01-11T05:13:45.283Z,107.07
2023-01-11T05:16:15.804Z,87.80
2023-01-11T05:18:45.392Z,87.43
2023-01-11T05:21:15.373Z,103.70
2023-01-11T05:23:44.253Z,104.73
2023-01-11T05:26:13.974Z,94.97
2023-01-11T05:28:43.199Z,101.47
2023-01-11T05:31:11.412Z,91.60
2023-01-11T05:33:39.433Z,76.97
2023-01-11T05:36:09.701Z,86.60
2023-01-11T05:38:37.710Z,83.77
2023-01-11T05:41:07.355Z,94.60
2023-01-11T05:43:56.353Z,84.90
2023-01-11T05:46:25.865Z,95.73
2023-01-11T05:48:55.389Z,90.80
2023-01-11T05:51:23.621Z,77.37
2023-01-11T05:53:51.545Z,84.60
2023-01-11T05:56:20.373Z,79.70
2023-01-11T05:58:49.207Z,109.50
2023-01-11T06:01:17.896Z,78.07
2023-01-11T06:03:47.840Z,79.73
2023-01-11T06:06:17.084Z,66.70
2023-01-11T06:08:45.137Z,71.97
2023-01-11T06:11:13.173Z,70.27
2023-01-11T06:13:41.097Z,71.20
2023-01-11T06:16:12.698Z,72.13
2023-01-11T06:18:42.457Z,75.37
2023-01-11T06:21:12.597Z,70.77
2023-01-11T06:23:42.886Z,64.80
2023-01-11T06:26:12.617Z,74.13
2023-01-11T06:28:41.163Z,66.23
2023-01-11T06:31:09.640Z,66.63
2023-01-11T06:33:38.288Z,63.27
2023-01-11T06:36:08.842Z,66.67
2023-01-11T06:38:38.953Z,59.40
2023-01-11T06:41:08.754Z,59.50
2023-01-11T06:43:38.065Z,71.03
2023-01-11T06:46:06.775Z,70.80
2023-01-11T06:48:34.740Z,60.87
2023-01-11T06:51:02.757Z,67.80
2023-01-11T06:53:30.763Z,69.07
2023-01-11T06:56:00.115Z,83.47
2023-01-11T06:58:28.483Z,71.97
2023-01-11T07:00:58.060Z,63.60
2023-01-11T07:03:27.354Z,72.70
2023-01-11T07:05:56.745Z,79.17
2023-01-11T07:08:25.654Z,85.57
2023-01-11T07:10:54.480Z,79.80
2023-01-11T07:13:24.093Z,88.20
2023-01-11T07:15:54.205Z,83.00
2023-01-11T07:18:22.341Z,73.30
2023-01-11T07:20:51.908Z,81.63
2023-01-11T07:23:19.827Z,85.97
2023-01-11T07:25:49.303Z,93.67
2023-01-11T07:28:17.480Z,96.57
2023-01-11T07:30:58.143Z,82.87
2023-01-11T07:33:27.438Z,92.47
2023-01-11T07:35:56.235Z,78.70
2023-01-11T07:38:24.663Z,65.93
2023-01-11T07:40:52.607Z,75.80
2023-01-11T07:43:22.980Z,69.20
2023-01-11T07:45:54.057Z,58.77
2023-01-11T07:48:25.175Z,60.50
2023-01-11T07:50:54.057Z,51.63
2023-01-11T07:53:25.382Z,59.00
2023-01-11T07:55:53.457Z,47.50
2023-01-11T07:58:21.350Z,51.57
2023-01-11T08:00:49.320Z,46.10
2023-01-11T08:03:18.674Z,51.73
2023-01-11T08:05:51.453Z,56.70
2023-01-11T08:08:19.437Z,59.47
2023-01-11T08:10:47.345Z,66.67
2023-01-11T08:13:33.426Z,62.47
2023-01-11T08:16:01.488Z,57.40
2023-01-11T08:18:30.931Z,72.57
2023-01-11T08:20:58.903Z,62.63
2023-01-11T08:23:27.304Z,65.67
2023-01-11T08:25:57.763Z,68.03
2023-01-11T08:28:25.763Z,62.33
2023-01-11T08:30:53.825Z,63.10
2023-01-11T08:33:21.757Z,77.57
2023-01-11T08:35:50.995Z,60.30
2023-01-11T08:38:18.975Z,64.03
2023-01-11T08:40:46.994Z,56.97
2023-01-11T08:43:14.894Z,65.70
2023-01-11T08:45:42.837Z,72.27
2023-01-11T08:48:12.135Z,76.50
2023-01-11T08:50:44.886Z,61.23
2023-01-11T08:53:14.147Z,61.07
2023-01-11T08:55:44.444Z,57.90
2023-01-11T08:58:12.372Z,67.00
2023-01-11T09:00:40.537Z,53.70
2023-01-11T09:03:08.576Z,60.47
2023-01-11T09:05:37.405Z,49.70
2023-01-11T09:08:06.078Z,49.77
2023-01-11T09:10:35.791Z,57.27
2023-01-11T09:13:03.761Z,52.57
2023-01-11T09:15:31.924Z,46.73
2023-01-11T09:17:59.831Z,54.07
2023-01-11T09:20:27.775Z,51.37
2023-01-11T09:22:55.732Z,47.00
2023-01-11T09:25:24.044Z,53.60
2023-01-11T09:27:53.568Z,52.17
2023-01-11T09:30:22.974Z,49.90
2023-01-11T09:32:52.255Z,45.50
2023-01-11T09:35:21.925Z,48.63
2023-01-11T09:37:50.395Z,49.90
2023-01-11T09:40:21.576Z,46.90
2023-01-11T09:42:52.708Z,48.93
2023-01-11T09:45:24.311Z,49.37
2023-01-11T09:48:00.492Z,42.43
2023-01-11T09:50:31.181Z,40.87
2023-01-11T09:53:03.293Z,40.50
2023-01-11T09:55:35.916Z,46.57
2023-01-11T09:58:38.715Z,47.63
2023-01-11T10:01:13.535Z,42.80
2023-01-11T10:04:06.338Z,43.60
2023-01-11T10:06:45.250Z,35.27
2023-01-11T10:18:33.612Z,37.63
2023-01-11T10:18:49.372Z,34.03
2023-01-11T10:21:26.565Z,44.97
2023-01-11T10:23:59.828Z,37.13
2023-01-11T10:26:29.260Z,41.10
2023-01-11T10:29:22.162Z,40.63
2023-01-11T10:32:13.666Z,39.40
2023-01-11T10:35:13.787Z,33.00
2023-01-11T10:37:59.665Z,44.37
2023-01-11T10:40:38.991Z,48.33
2023-01-11T10:43:16.860Z,36.50
2023-01-11T10:45:50.689Z,36.03
2023-01-11T10:48:24.398Z,40.67
2023-01-11T10:51:02.946Z,41.53
2023-01-11T10:53:36.636Z,44.50
2023-01-11T10:56:13.728Z,37.63
2023-01-11T10:59:02.487Z,35.80
2023-01-11T11:01:54.252Z,33.90
2023-01-11T11:04:38.341Z,39.07
2023-01-11T11:07:13.723Z,36.07
2023-01-11T11:09:51.805Z,36.07
2023-01-11T11:12:24.409Z,33.90
2023-01-11T11:15:00.994Z,32.97
2023-01-11T11:17:33.253Z,31.60
2023-01-11T11:20:01.459Z,32.63
2023-01-11T11:22:30.724Z,37.40
2023-01-11T11:25:01.713Z,29.10
2023-01-11T11:27:34.028Z,30.87
2023-01-11T11:30:02.009Z,36.47
2023-01-11T11:32:33.162Z,36.17
2023-01-11T11:35:02.502Z,31.17
2023-01-11T11:37:35.836Z,33.43
2023-01-11T11:40:04.569Z,33.43
2023-01-11T11:42:32.767Z,33.90
2023-01-11T11:45:17.158Z,33.33
2023-01-11T11:48:05.960Z,35.80
2023-01-11T11:50:44.655Z,30.53
2023-01-11T11:53:26.220Z,37.30
2023-01-11T11:55:54.997Z,34.70
2023-01-11T11:58:25.782Z,32.63
2023-01-11T12:00:54.454Z,31.47
2023-01-11T12:03:28.245Z,28.30
2023-01-11T12:06:00.278Z,28.77
2023-01-11T12:08:32.501Z,29.97
2023-01-11T12:11:02.716Z,26.90
2023-01-11T12:13:33.548Z,26.73
2023-01-11T12:16:03.324Z,25.53
2023-01-11T12:18:33.471Z,23.60
2023-01-11T12:21:19.482Z,28.77
2023-01-11T12:23:48.949Z,20.77
2023-01-11T12:26:23.561Z,24.70
2023-01-11T12:29:10.502Z,30.23
2023-01-11T12:31:50.276Z,27.37
2023-01-11T12:34:33.432Z,25.83
2023-01-11T12:37:13.486Z,26.53
2023-01-11T12:39:51.037Z,23.20
2023-01-11T12:42:34.483Z,25.43
2023-01-11T12:45:12.729Z,24.47
2023-01-11T12:48:19.914Z,23.97
2023-01-11T12:51:03.200Z,25.43
2023-01-11T12:53:56.995Z,26.40
2023-01-11T12:56:50.488Z,28.87
2023-01-11T12:59:36.234Z,30.10
2023-01-11T13:02:23.289Z,24.23
2023-01-11T13:05:02.493Z,23.53
2023-01-11T13:07:41.281Z,25.73
2023-01-11T13:10:22.765Z,24.23
2023-01-11T13:12:56.604Z,26.43
2023-01-11T13:15:34.940Z,27.43
2023-01-11T13:18:13.601Z,28.10
2023-01-11T13:21:00.640Z,26.57
2023-01-11T13:23:39.351Z,29.50
2023-01-11T13:26:18.549Z,26.10
2023-01-11T13:28:52.385Z,28.20
2023-01-11T13:31:21.145Z,26.00
2023-01-11T13:33:54.670Z,22.87
2023-01-11T13:36:26.625Z,22.53
2023-01-11T13:39:00.091Z,26.60
2023-01-11T13:41:33.148Z,22.57
2023-01-11T13:44:07.134Z,27.80
2023-01-11T13:46:49.738Z,28.37
2023-01-11T13:49:29.823Z,27.73
2023-01-11T13:52:01.148Z,24.67
2023-01-11T13:54:40.163Z,28.40
2023-01-11T13:57:14.153Z,32.23
2023-01-11T13:59:46.087Z,39.23
2023-01-11T14:02:22.972Z,36.10
2023-01-11T14:04:56.323Z,37.53
2023-01-11T14:07:36.889Z,30.87
2023-01-11T14:10:20.931Z,31.27
2023-01-11T14:13:02.970Z,32.60
2023-01-11T14:15:37.737Z,32.90
2023-01-11T14:18:19.026Z,31.03
2023-01-11T14:20:54.829Z,30.47
2023-01-11T14:23:27.922Z,28.27
2023-01-11T14:26:22.265Z,32.40
2023-01-11T14:29:02.455Z,35.30
2023-01-11T14:31:53.928Z,34.27
2023-01-11T14:34:54.490Z,37.80
2023-01-11T14:37:41.269Z,40.93
2023-01-11T14:40:36.948Z,35.77
2023-01-11T14:43:23.742Z,34.33
2023-01-11T14:46:30.386Z,34.20
2023-01-11T14:49:10.888Z,32.97
2023-01-11T14:51:52.693Z,30.53
2023-01-11T14:54:25.492Z,32.93
2023-01-11T14:56:55.967Z,38.60
2023-01-11T14:59:40.183Z,32.73
2023-01-11T15:02:16.463Z,32.73
2023-01-11T15:05:27.458Z,33.90
2023-01-11T15:08:20.791Z,31.07
2023-01-11T15:10:53.827Z,27.50
2023-01-11T15:13:24.940Z,28.90
2023-01-11T15:16:11.024Z,32.87
2023-01-11T15:18:45.771Z,35.13
2023-01-11T15:21:19.714Z,36.20
2023-01-11T15:23:50.610Z,35.13
2023-01-11T15:26:20.560Z,33.20
2023-01-11T15:28:51.896Z,28.17
2023-01-11T15:31:34.264Z,32.43
2023-01-11T15:34:06.445Z,29.30
2023-01-11T15:36:58.997Z,34.53
2023-01-11T15:39:37.006Z,36.33
2023-01-11T15:42:31.076Z,36.93
2023-01-11T15:45:33.091Z,39.03
2023-01-11T15:48:23.595Z,38.87
2023-01-11T15:51:17.510Z,40.33
2023-01-11T15:54:08.703Z,35.13
2023-01-11T15:57:15.281Z,36.03
2023-01-11T16:00:17.899Z,36.77
2023-01-11T16:03:25.436Z,38.83
2023-01-11T16:06:02.834Z,35.33
2023-01-11T16:08:36.729Z,35.30
2023-01-11T16:11:15.003Z,37.57
2023-01-11T16:14:00.236Z,36.90
2023-01-11T16:16:40.697Z,36.63
2023-01-11T16:19:17.140Z,35.60
2023-01-11T16:21:49.499Z,39.83
2023-01-11T16:24:20.957Z,36.27
2023-01-11T16:26:56.187Z,33.37
2023-01-11T16:29:26.455Z,34.70
2023-01-11T16:31:59.633Z,38.43
2023-01-11T16:34:28.971Z,40.30
2023-01-11T16:36:58.041Z,38.20
2023-01-11T16:39:28.631Z,39.50
2023-01-11T16:42:01.646Z,40.43
2023-01-11T16:44:41.674Z,37.47
2023-01-11T16:47:15.446Z,35.67
2023-01-11T16:49:48.747Z,37.17
2023-01-11T16:52:39.888Z,35.43
2023-01-11T16:55:18.920Z,38.37
2023-01-11T16:57:52.591Z,37.97
2023-01-11T17:00:23.983Z,36.83
2023-01-11T17:03:02.492Z,41.87
2023-01-11T17:05:30.446Z,36.03
2023-01-11T17:07:58.370Z,38.60
2023-01-11T17:10:28.923Z,37.03
2023-01-11T17:13:37.864Z,47.20
2023-01-11T17:16:11.328Z,36.47
2023-01-11T17:18:41.082Z,41.23
2023-01-11T17:21:18.192Z,33.03
2023-01-11T17:23:47.137Z,37.43
2023-01-11T17:26:18.500Z,33.77
2023-01-11T17:28:49.998Z,34.03
2023-01-11T17:31:23.994Z,30.97
2023-01-11T17:34:02.599Z,37.23
2023-01-11T17:36:31.351Z,37.87
2023-01-11T17:39:00.036Z,35.47
2023-01-11T17:41:46.772Z,35.73
2023-01-11T17:44:37.515Z,34.07
2023-01-11T17:47:09.085Z,33.13
2023-01-11T17:49:38.605Z,34.07
2023-01-11T17:52:21.320Z,32.07
2023-01-11T17:55:01.510Z,32.20
2023-01-11T17:57:29.443Z,33.03
2023-01-11T18:00:29.692Z,34.00
2023-01-11T18:02:58.520Z,32.33
2023-01-11T18:05:29.400Z,36.20
2023-01-11T18:07:59.022Z,32.00
2023-01-11T18:10:29.421Z,35.23
2023-01-11T18:13:00.498Z,31.97
2023-01-11T18:15:32.613Z,30.63
2023-01-11T18:18:01.517Z,30.10
2023-01-11T18:20:40.415Z,26.63
2023-01-11T18:23:23.108Z,30.90
2023-01-11T18:25:51.411Z,24.07
2023-01-11T18:28:28.570Z,28.57
2023-01-11T18:31:01.693Z,24.53
2023-01-11T18:33:32.325Z,26.43
2023-01-11T18:36:03.349Z,29.10
2023-01-11T18:38:33.342Z,27.20
2023-01-11T18:41:25.939Z,26.67
2023-01-11T18:43:54.528Z,25.03
2023-01-11T18:46:23.981Z,24.30
2023-01-11T18:48:52.051Z,26.73
2023-01-11T18:51:25.890Z,28.07
2023-01-11T18:53:53.777Z,26.23
2023-01-11T18:56:21.677Z,26.77
2023-01-11T18:58:49.794Z,27.70
2023-01-11T19:01:18.308Z,23.90
2023-01-11T19:03:47.840Z,22.07
2023-01-11T19:06:19.289Z,27.03
2023-01-11T19:08:47.327Z,28.00
2023-01-11T19:11:16.913Z,24.40
2023-01-11T19:13:46.758Z,28.80
2023-01-11T19:16:15.901Z,27.33
2023-01-11T19:18:45.311Z,34.30
2023-01-11T19:21:14.837Z,30.67
2023-01-11T19:23:43.117Z,29.93
2023-01-11T19:26:11.169Z,28.03
2023-01-11T19:28:39.161Z,30.60
2023-01-11T19:31:08.291Z,29.13
2023-01-11T19:33:36.598Z,32.03
2023-01-11T19:36:06.885Z,32.60
2023-01-11T19:38:36.267Z,31.57
2023-01-11T19:41:05.823Z,29.30
2023-01-11T19:43:34.113Z,27.27
2023-01-11T19:46:03.822Z,28.67
2023-01-11T19:48:32.428Z,31.90
2023-01-11T19:51:04.426Z,29.90
2023-01-11T19:53:32.902Z,27.23
2023-01-11T19:56:03.296Z,29.83
2023-01-11T19:58:31.625Z,24.90
2023-01-11T20:00:59.882Z,25.13
2023-01-11T20:03:29.774Z,24.10
2023-01-11T20:06:07.670Z,28.20
2023-01-11T20:08:36.060Z,22.43
2023-01-11T20:11:07.657Z,23.90
2023-01-11T20:13:35.629Z,24.67
2023-01-11T20:16:06.793Z,25.00
2023-01-11T20:18:35.142Z,28.03
2023-01-11T20:21:04.026Z,25.27
2023-01-11T20:23:33.051Z,25.00
2023-01-11T20:26:01.680Z,26.33
2023-01-11T20:28:31.820Z,23.93
2023-01-11T20:31:02.255Z,28.50
2023-01-11T20:33:30.603Z,27.30
2023-01-11T20:35:58.527Z,29.20
2023-01-11T20:38:26.595Z,33.77
2023-01-11T20:40:54.688Z,34.00
2023-01-11T20:43:22.859Z,28.80
2023-01-11T20:45:57.424Z,36.13
2023-01-11T20:48:25.452Z,32.53
2023-01-11T20:50:53.342Z,34.90
2023-01-11T20:53:21.277Z,33.53
2023-01-11T20:55:49.203Z,30.37
2023-01-11T20:58:17.226Z,34.63
2023-01-11T21:00:45.419Z,34.23
2023-01-11T21:03:14.919Z,30.13
2023-01-11T21:05:43.013Z,35.17
2023-01-11T21:08:11.105Z,33.97
2023-01-11T21:10:39.270Z,29.83
2023-01-11T21:15:36.910Z,37.33
2023-01-11T21:18:05.639Z,38.67
2023-01-11T21:20:35.084Z,32.93
2023-01-11T21:23:03.143Z,38.17
2023-01-11T21:25:34.063Z,38.83
2023-01-11T21:28:02.061Z,38.47
2023-01-11T21:30:30.028Z,33.23
2023-01-11T21:32:58.984Z,39.60
2023-01-11T21:35:28.042Z,42.80
2023-01-11T21:37:57.413Z,40.60
2023-01-11T21:40:25.303Z,34.47
2023-01-11T21:42:53.325Z,34.47
2023-01-11T21:45:21.240Z,45.87
2023-01-11T21:47:49.120Z,41.20
2023-01-11T21:50:17.690Z,45.83
2023-01-11T21:52:45.629Z,41.00
2023-01-11T21:55:15.031Z,41.77
2023-01-11T21:57:42.896Z,42.97
2023-01-11T22:00:14.027Z,40.23
2023-01-11T22:02:42.236Z,41.77
2023-01-11T22:05:10.908Z,41.50
2023-01-11T22:07:40.840Z,44.43
2023-01-11T22:10:09.794Z,42.07
2023-01-11T22:12:39.099Z,41.30
2023-01-11T22:15:08.131Z,42.00
2023-01-11T22:17:36.179Z,48.20
2023-01-11T22:20:04.402Z,47.87
2023-01-11T22:22:32.387Z,48.93
2023-01-11T22:25:00.664Z,42.33
2023-01-11T22:27:28.633Z,43.80
2023-01-11T22:29:57.972Z,48.83
2023-01-11T22:32:26.141Z,44.47
2023-01-11T22:34:54.014Z,44.90
2023-01-11T22:37:22.681Z,43.30
2023-01-11T22:39:50.675Z,46.27
2023-01-11T22:42:18.625Z,39.07
2023-01-11T22:44:46.552Z,41.17
2023-01-11T22:47:15.973Z,43.30
2023-01-11T22:49:43.873Z,38.23
2023-01-11T22:52:11.749Z,41.30
2023-01-11T22:54:39.650Z,37.37
2023-01-11T22:57:07.590Z,41.47
2023-01-11T22:59:35.504Z,43.70
2023-01-11T23:02:03.434Z,41.47
2023-01-11T23:04:33.947Z,38.90
2023-01-11T23:07:01.822Z,38.47
2023-01-11T23:09:29.732Z,37.73
2023-01-11T23:12:15.199Z,46.87
2023-01-11T23:14:43.129Z,45.03
2023-01-11T23:17:11.480Z,45.13
2023-01-11T23:19:41.795Z,45.43
2023-01-11T23:22:10.692Z,41.90
2023-01-11T23:24:39.924Z,44.63
2023-01-11T23:27:07.905Z,44.67
2023-01-11T23:29:36.226Z,48.50
2023-01-11T23:32:04.234Z,45.77
2023-01-11T23:34:32.182Z,40.80
2023-01-11T23:37:01.449Z,42.13
2023-01-11T23:39:29.391Z,43.20
2023-01-11T23:42:14.744Z,43.57
2023-01-11T23:44:42.657Z,46.37
2023-01-11T23:47:21.909Z,41.33
2023-01-11T23:49:50.504Z,43.23
2023-01-11T23:52:20.986Z,49.20
2023-01-11T23:54:49.209Z,44.80
2023-01-11T23:57:18.820Z,40.30
2023-01-11T23:59:46.941Z,42.80
